createdAt,value
2022-12-31T00:01:10.207Z,5.36
2022-12-31T00:03:40.097Z,5.40
2022-12-31T00:06:15.679Z,5.41
2022-12-31T00:08:43.369Z,5.44
2022-12-31T00:11:10.894Z,5.45
2022-12-31T00:13:38.554Z,5.48
2022-12-31T00:16:12.362Z,5.51
2022-12-31T00:18:44.531Z,5.50
2022-12-31T00:21:12.660Z,5.54
2022-12-31T00:23:40.414Z,5.58
2022-12-31T00:26:09.545Z,5.55
2022-12-31T00:28:38.118Z,5.53
2022-12-31T00:31:07.753Z,5.52
2022-12-31T00:33:35.306Z,5.48
2022-12-31T00:36:12.659Z,5.49
2022-12-31T00:38:41.091Z,5.53
2022-12-31T00:41:08.684Z,5.53
2022-12-31T00:43:36.512Z,5.48
2022-12-31T00:46:04.988Z,5.48
2022-12-31T00:48:32.872Z,5.47
2022-12-31T00:51:01.175Z,5.47
2022-12-31T00:53:30.572Z,5.43
2022-12-31T00:56:01.729Z,5.42
2022-12-31T00:58:29.370Z,5.41
2022-12-31T01:00:57.027Z,5.35
2022-12-31T01:03:24.810Z,5.34
2022-12-31T01:05:53.230Z,5.38
2022-12-31T01:08:20.736Z,5.41
2022-12-31T01:11:10.879Z,5.42
2022-12-31T01:13:38.428Z,5.41
2022-12-31T01:16:10.159Z,5.41
2022-12-31T01:18:38.513Z,5.40
2022-12-31T01:21:07.981Z,5.38
2022-12-31T01:23:35.857Z,5.39
2022-12-31T01:26:06.340Z,5.41
2022-12-31T01:28:34.806Z,5.47
2022-12-31T01:31:05.446Z,5.45
2022-12-31T01:33:33.494Z,5.49
2022-12-31T01:36:04.879Z,5.48
2022-12-31T01:38:32.427Z,5.45
2022-12-31T01:41:00.255Z,5.44
2022-12-31T01:43:46.335Z,5.47
2022-12-31T01:46:15.676Z,5.50
2022-12-31T01:48:43.685Z,5.54
2022-12-31T01:51:11.438Z,5.53
2022-12-31T01:53:40.936Z,5.49
2022-12-31T01:56:08.624Z,5.49
2022-12-31T01:58:39.083Z,5.52
2022-12-31T02:01:08.938Z,5.55
2022-12-31T02:03:36.683Z,5.51
2022-12-31T02:06:08.311Z,5.49
2022-12-31T02:08:41.845Z,5.44
2022-12-31T02:11:25.864Z,5.44
2022-12-31T02:13:58.337Z,5.39
2022-12-31T02:16:32.790Z,5.34
2022-12-31T02:19:07.465Z,5.33
2022-12-31T02:21:52.703Z,5.36
2022-12-31T02:24:49.443Z,5.33
2022-12-31T02:27:26.070Z,5.38
2022-12-31T02:30:08.519Z,5.34
2022-12-31T02:32:43.520Z,5.42
2022-12-31T02:35:14.391Z,5.45
2022-12-31T02:37:44.954Z,5.44
2022-12-31T02:40:16.065Z,5.45
2022-12-31T02:42:43.587Z,5.43
2022-12-31T02:45:14.753Z,5.44
2022-12-31T02:47:51.486Z,5.42
2022-12-31T02:50:30.266Z,5.45
2022-12-31T02:53:06.713Z,5.49
2022-12-31T02:55:39.116Z,5.50
2022-12-31T02:58:12.104Z,5.50
2022-12-31T03:01:03.422Z,5.52
2022-12-31T03:03:32.064Z,5.52
2022-12-31T03:06:01.448Z,5.44
2022-12-31T03:08:29.457Z,5.48
2022-12-31T03:10:57.269Z,5.57
2022-12-31T03:13:24.137Z,5.61
2022-12-31T03:15:53.007Z,5.62
2022-12-31T03:18:41.843Z,5.62
2022-12-31T03:21:30.705Z,5.63
2022-12-31T03:24:16.208Z,5.61
2022-12-31T03:26:43.728Z,5.65
2022-12-31T03:29:11.280Z,5.69
2022-12-31T03:31:40.162Z,5.69
2022-12-31T03:34:07.672Z,5.69
2022-12-31T03:36:35.193Z,5.69
2022-12-31T03:39:02.707Z,5.69
2022-12-31T03:41:30.725Z,5.73
2022-12-31T03:43:58.232Z,5.72
2022-12-31T03:46:25.781Z,5.77
2022-12-31T03:48:54.643Z,5.75
2022-12-31T03:51:22.150Z,5.76
2022-12-31T03:53:49.675Z,5.79
2022-12-31T03:56:17.202Z,5.82
2022-12-31T03:58:44.792Z,5.87
2022-12-31T04:01:12.398Z,5.88
2022-12-31T04:03:39.973Z,5.81
2022-12-31T04:06:08.919Z,5.75
2022-12-31T04:08:36.542Z,5.64
2022-12-31T04:11:04.487Z,5.62
2022-12-31T04:13:32.018Z,5.66
2022-12-31T04:15:59.579Z,5.61
2022-12-31T04:18:27.210Z,5.58
2022-12-31T04:20:54.957Z,5.51
2022-12-31T04:23:23.795Z,5.48
2022-12-31T04:25:51.322Z,5.46
2022-12-31T04:28:18.872Z,5.43
2022-12-31T04:30:46.401Z,5.40
2022-12-31T04:33:13.940Z,5.41
2022-12-31T04:35:41.478Z,5.33
2022-12-31T04:38:09.004Z,5.34
2022-12-31T04:40:58.595Z,5.40
2022-12-31T04:43:26.205Z,5.43
2022-12-31T04:45:53.818Z,5.42
2022-12-31T04:48:21.370Z,5.48
2022-12-31T04:50:48.932Z,5.49
2022-12-31T04:53:16.466Z,5.56
2022-12-31T04:55:46.290Z,5.60
2022-12-31T04:58:13.880Z,5.72
2022-12-31T05:00:41.448Z,5.73
2022-12-31T05:03:09.140Z,5.82
2022-12-31T05:05:39.707Z,5.90
2022-12-31T05:08:07.750Z,5.93
2022-12-31T05:10:35.285Z,6.08
2022-12-31T05:13:04.550Z,6.12
2022-12-31T05:15:32.244Z,6.16
2022-12-31T05:17:59.825Z,6.27
2022-12-31T05:20:27.396Z,6.27
2022-12-31T05:22:54.898Z,6.30
2022-12-31T05:25:22.690Z,6.30
2022-12-31T05:27:50.218Z,6.33
2022-12-31T05:30:19.933Z,6.29
2022-12-31T05:32:47.870Z,6.42
2022-12-31T05:35:16.892Z,6.40
2022-12-31T05:37:44.712Z,6.45
2022-12-31T05:40:12.788Z,6.47
2022-12-31T05:42:40.932Z,6.41
2022-12-31T05:45:09.495Z,6.40
2022-12-31T05:47:38.372Z,6.33
2022-12-31T05:50:06.994Z,6.30
2022-12-31T05:52:34.527Z,6.31
2022-12-31T05:55:02.027Z,6.40
2022-12-31T05:57:29.613Z,6.31
2022-12-31T05:59:57.133Z,6.26
2022-12-31T06:02:24.719Z,6.29
2022-12-31T06:04:54.525Z,6.40
2022-12-31T06:07:22.057Z,6.47
2022-12-31T06:09:49.905Z,6.51
2022-12-31T06:12:17.610Z,6.51
2022-12-31T06:14:45.930Z,6.56
2022-12-31T06:17:13.687Z,6.66
2022-12-31T06:19:41.211Z,6.62
2022-12-31T06:22:10.210Z,6.72
2022-12-31T06:24:37.768Z,6.75
2022-12-31T06:27:05.293Z,6.69
2022-12-31T06:29:32.793Z,6.69
2022-12-31T06:32:00.379Z,6.61
2022-12-31T06:34:27.920Z,6.63
2022-12-31T06:36:55.475Z,6.76
2022-12-31T06:39:24.516Z,6.77
2022-12-31T06:41:52.056Z,6.85
2022-12-31T06:44:22.304Z,6.89
2022-12-31T06:46:50.242Z,6.90
2022-12-31T06:49:18.335Z,6.99
2022-12-31T06:51:47.736Z,7.05
2022-12-31T06:54:15.279Z,7.07
2022-12-31T06:56:44.822Z,7.10
2022-12-31T06:59:26.668Z,7.09
2022-12-31T07:02:04.592Z,7.11
2022-12-31T07:04:56.628Z,7.13
2022-12-31T07:07:27.754Z,7.11
2022-12-31T07:10:00.397Z,7.18
2022-12-31T07:12:40.213Z,7.15
2022-12-31T07:15:13.174Z,7.25
2022-12-31T07:17:47.965Z,7.25
2022-12-31T07:20:17.434Z,7.22
2022-12-31T07:22:45.890Z,7.30
2022-12-31T07:25:14.923Z,7.32
2022-12-31T07:28:03.656Z,7.36
2022-12-31T07:30:37.054Z,7.47
2022-12-31T07:33:16.346Z,7.55
2022-12-31T07:35:52.576Z,7.52
2022-12-31T07:38:25.945Z,7.52
2022-12-31T07:41:05.526Z,7.55
2022-12-31T07:43:47.897Z,7.48
2022-12-31T07:46:20.768Z,7.43
2022-12-31T07:48:48.897Z,7.42
2022-12-31T07:51:17.348Z,7.37
2022-12-31T07:53:44.901Z,7.32
2022-12-31T07:56:12.559Z,7.36
2022-12-31T07:58:52.566Z,7.39
2022-12-31T08:01:29.897Z,7.44
2022-12-31T08:04:03.931Z,7.47
2022-12-31T08:06:38.041Z,7.43
2022-12-31T08:09:09.560Z,7.38
2022-12-31T08:11:41.771Z,7.42
2022-12-31T08:14:13.532Z,7.49
2022-12-31T08:16:41.854Z,7.55
2022-12-31T08:19:14.859Z,7.65
2022-12-31T08:21:50.089Z,7.66
2022-12-31T08:24:24.720Z,7.75
2022-12-31T08:26:59.985Z,7.78
2022-12-31T08:29:36.468Z,7.78
2022-12-31T08:32:10.821Z,7.85
2022-12-31T08:34:45.587Z,7.91
2022-12-31T08:37:16.352Z,7.93
2022-12-31T08:39:58.415Z,7.90
2022-12-31T08:42:31.118Z,7.92
2022-12-31T08:45:05.459Z,7.91
2022-12-31T08:47:39.229Z,8.05
2022-12-31T08:50:13.492Z,8.21
2022-12-31T08:52:41.764Z,8.32
2022-12-31T08:55:14.779Z,8.37
2022-12-31T08:57:47.541Z,8.36
2022-12-31T09:00:18.921Z,8.50
2022-12-31T09:03:11.169Z,8.67
2022-12-31T09:05:52.981Z,8.86
2022-12-31T09:08:26.120Z,9.09
2022-12-31T09:10:58.686Z,9.27
2022-12-31T09:13:34.043Z,9.51
2022-12-31T09:16:08.586Z,9.56
2022-12-31T09:18:39.977Z,9.67
2022-12-31T09:21:09.890Z,9.79
2022-12-31T09:23:38.203Z,9.82
2022-12-31T09:26:16.887Z,9.93
2022-12-31T09:28:49.641Z,9.95
2022-12-31T09:31:23.280Z,10.02
2022-12-31T09:33:52.899Z,10.07
2022-12-31T09:36:23.617Z,10.15
2022-12-31T09:38:54.858Z,10.31
2022-12-31T09:41:45.973Z,10.54
2022-12-31T09:44:52.109Z,10.78
2022-12-31T09:47:46.855Z,10.66
2022-12-31T09:50:28.410Z,10.45
2022-12-31T09:53:07.997Z,10.48
2022-12-31T09:55:39.031Z,10.47
2022-12-31T09:58:16.528Z,10.50
2022-12-31T10:00:45.758Z,10.54
2022-12-31T10:03:36.908Z,10.61
2022-12-31T10:06:17.891Z,10.63
2022-12-31T10:09:08.330Z,10.64
2022-12-31T10:11:53.500Z,10.64
2022-12-31T10:14:30.598Z,10.67
2022-12-31T10:17:07.237Z,10.75
2022-12-31T10:19:48.543Z,10.91
2022-12-31T10:22:39.045Z,11.03
2022-12-31T10:25:21.534Z,11.10
2022-12-31T10:28:07.978Z,11.09
2022-12-31T10:30:36.687Z,11.08
2022-12-31T10:33:09.528Z,11.08
2022-12-31T10:35:44.099Z,11.08
2022-12-31T10:38:21.747Z,11.07
2022-12-31T10:41:22.065Z,11.06
2022-12-31T10:44:10.172Z,11.06
2022-12-31T10:46:49.723Z,11.15
2022-12-31T10:50:05.803Z,11.23
2022-12-31T10:52:56.336Z,11.20
2022-12-31T10:56:08.575Z,11.25
2022-12-31T10:59:06.411Z,11.29
2022-12-31T11:01:43.456Z,11.42
2022-12-31T11:04:29.151Z,11.43
2022-12-31T11:07:16.187Z,11.53
2022-12-31T11:09:59.623Z,11.44
2022-12-31T11:12:46.983Z,11.56
2022-12-31T11:15:19.784Z,11.51
2022-12-31T11:17:55.875Z,11.53
2022-12-31T11:20:46.902Z,11.61
2022-12-31T11:23:25.518Z,11.77
2022-12-31T11:26:05.255Z,11.85
2022-12-31T11:28:51.263Z,11.77
2022-12-31T11:31:28.539Z,11.95
2022-12-31T11:34:10.692Z,12.04
2022-12-31T11:36:43.304Z,12.13
2022-12-31T11:39:41.190Z,12.02
2022-12-31T11:42:20.707Z,12.04
2022-12-31T11:44:53.094Z,12.15
2022-12-31T11:47:49.652Z,12.32
2022-12-31T11:50:31.966Z,12.27
2022-12-31T11:53:08.932Z,12.31
2022-12-31T11:55:44.594Z,12.42
2022-12-31T11:58:16.239Z,12.48
2022-12-31T12:00:47.001Z,12.57
2022-12-31T12:03:14.616Z,12.88
2022-12-31T12:05:42.430Z,13.23
2022-12-31T12:08:09.966Z,13.42
2022-12-31T12:10:39.873Z,13.55
2022-12-31T12:13:16.028Z,13.60
2022-12-31T12:15:47.250Z,13.63
2022-12-31T12:18:27.685Z,13.65
2022-12-31T12:21:02.827Z,13.66
2022-12-31T12:23:30.446Z,13.68
2022-12-31T12:25:57.972Z,13.63
2022-12-31T12:28:37.416Z,13.65
2022-12-31T12:31:08.470Z,13.53
2022-12-31T12:33:43.388Z,13.54
2022-12-31T12:36:12.312Z,13.63
2022-12-31T12:38:39.994Z,13.74
2022-12-31T12:41:12.176Z,13.75
2022-12-31T12:43:41.523Z,13.66
2022-12-31T12:46:22.331Z,13.66
2022-12-31T12:48:55.277Z,13.34
2022-12-31T12:51:31.748Z,13.05
2022-12-31T12:54:03.966Z,12.95
2022-12-31T12:56:38.284Z,12.81
2022-12-31T12:59:26.083Z,12.76
2022-12-31T13:01:59.070Z,12.78
2022-12-31T13:04:52.412Z,12.72
2022-12-31T13:07:27.736Z,12.64
2022-12-31T13:10:05.390Z,12.70
2022-12-31T13:13:05.329Z,12.67
2022-12-31T13:15:30.675Z,12.61
2022-12-31T13:18:06.094Z,12.58
2022-12-31T13:20:39.247Z,12.58
2022-12-31T13:23:14.593Z,12.63
2022-12-31T13:25:54.812Z,12.54
2022-12-31T13:28:23.940Z,12.50
2022-12-31T13:30:57.529Z,12.54
2022-12-31T13:33:32.128Z,12.52
2022-12-31T13:36:00.627Z,12.41
2022-12-31T13:38:30.822Z,12.32
2022-12-31T13:41:02.224Z,12.24
2022-12-31T13:43:37.656Z,12.15
2022-12-31T13:46:12.015Z,12.12
2022-12-31T13:48:45.888Z,11.96
2022-12-31T13:51:17.069Z,11.97
2022-12-31T13:53:50.124Z,11.96
2022-12-31T13:56:21.886Z,11.92
2022-12-31T13:58:53.101Z,11.92
2022-12-31T14:01:30.691Z,11.86
2022-12-31T14:04:06.033Z,11.81
2022-12-31T14:06:37.692Z,11.79
2022-12-31T14:09:05.978Z,11.71
2022-12-31T14:11:51.327Z,11.67
2022-12-31T14:14:26.638Z,11.63
2022-12-31T14:16:59.819Z,11.58
2022-12-31T14:19:41.335Z,11.52
2022-12-31T14:22:14.500Z,11.48
2022-12-31T14:24:45.872Z,11.48
2022-12-31T14:27:18.200Z,11.40
2022-12-31T14:29:49.112Z,11.33
2022-12-31T14:32:34.992Z,11.20
2022-12-31T14:35:14.988Z,11.10
2022-12-31T14:37:47.731Z,11.03
2022-12-31T14:40:20.280Z,10.97
2022-12-31T14:42:57.031Z,10.90
2022-12-31T14:45:34.331Z,10.89
2022-12-31T14:48:07.867Z,10.84
2022-12-31T14:50:35.583Z,10.83
2022-12-31T14:53:22.774Z,10.68
2022-12-31T14:55:58.269Z,10.66
2022-12-31T14:58:32.152Z,10.54
2022-12-31T15:01:01.031Z,10.49
2022-12-31T15:03:41.401Z,10.47
2022-12-31T15:06:28.751Z,10.25
2022-12-31T15:09:08.177Z,10.17
2022-12-31T15:11:46.791Z,10.02
2022-12-31T15:14:39.387Z,9.87
2022-12-31T15:17:17.252Z,9.75
2022-12-31T15:20:17.614Z,9.64
2022-12-31T15:22:46.336Z,9.63
2022-12-31T15:25:23.721Z,9.73
2022-12-31T15:27:51.694Z,9.82
2022-12-31T15:30:39.084Z,9.81
2022-12-31T15:33:09.230Z,9.83
2022-12-31T15:35:49.961Z,9.82
2022-12-31T15:38:35.552Z,9.79
2022-12-31T15:41:15.216Z,9.80
2022-12-31T15:43:46.625Z,9.64
2022-12-31T15:46:17.762Z,9.61
2022-12-31T15:48:52.108Z,9.59
2022-12-31T15:51:24.046Z,9.53
2022-12-31T15:53:53.494Z,9.37
2022-12-31T15:56:27.398Z,9.29
2022-12-31T15:58:58.758Z,9.20
2022-12-31T16:01:29.960Z,9.19
2022-12-31T16:03:59.188Z,9.06
2022-12-31T16:06:30.664Z,8.95
2022-12-31T16:08:58.532Z,8.91
2022-12-31T16:11:29.939Z,8.93
2022-12-31T16:13:58.620Z,8.82
2022-12-31T16:16:27.848Z,8.76
2022-12-31T16:18:57.460Z,8.73
2022-12-31T16:21:28.468Z,8.62
2022-12-31T16:23:57.618Z,8.62
2022-12-31T16:26:29.357Z,8.60
2022-12-31T16:28:59.893Z,8.60
2022-12-31T16:31:29.810Z,8.60
2022-12-31T16:34:08.243Z,8.60
2022-12-31T16:36:37.144Z,8.62
2022-12-31T16:39:25.196Z,8.66
2022-12-31T16:41:54.118Z,8.57
2022-12-31T16:44:26.255Z,8.53
2022-12-31T16:46:57.013Z,8.47
2022-12-31T16:49:25.227Z,8.39
2022-12-31T16:51:56.667Z,8.37
2022-12-31T16:54:28.704Z,8.34
2022-12-31T16:56:57.129Z,8.28
2022-12-31T16:59:31.828Z,8.22
2022-12-31T17:02:04.660Z,8.24
2022-12-31T17:04:32.423Z,8.20
2022-12-31T17:07:26.859Z,8.21
2022-12-31T17:10:03.307Z,8.28
2022-12-31T17:12:46.802Z,8.36
2022-12-31T17:15:23.434Z,8.28
2022-12-31T17:17:53.916Z,8.21
2022-12-31T17:20:25.606Z,8.26
2022-12-31T17:22:57.611Z,8.28
2022-12-31T17:25:26.923Z,8.30
2022-12-31T17:27:57.380Z,8.27
2022-12-31T17:30:43.685Z,8.34
2022-12-31T17:33:30.586Z,8.36
2022-12-31T17:36:14.588Z,8.36
2022-12-31T17:38:43.680Z,8.34
2022-12-31T17:41:32.099Z,8.39
2022-12-31T17:43:59.678Z,8.45
2022-12-31T17:46:27.490Z,8.36
2022-12-31T17:48:58.631Z,8.43
2022-12-31T17:51:26.301Z,8.47
2022-12-31T17:53:55.370Z,8.44
2022-12-31T17:56:23.179Z,8.44
2022-12-31T17:58:52.679Z,8.36
2022-12-31T18:01:22.340Z,8.30
2022-12-31T18:03:50.232Z,8.21
2022-12-31T18:06:19.374Z,8.28
2022-12-31T18:08:47.360Z,8.25
2022-12-31T18:11:19.214Z,8.13
2022-12-31T18:13:47.067Z,8.05
2022-12-31T18:16:15.005Z,8.08
2022-12-31T18:18:44.018Z,8.09
2022-12-31T18:21:19.308Z,8.03
2022-12-31T18:23:48.566Z,8.05
2022-12-31T18:26:19.260Z,8.03
2022-12-31T18:28:47.464Z,8.10
2022-12-31T18:31:15.886Z,8.04
2022-12-31T18:33:43.605Z,7.99
2022-12-31T18:36:13.691Z,7.99
2022-12-31T18:38:41.943Z,8.12
2022-12-31T18:41:18.166Z,8.19
2022-12-31T18:43:45.814Z,8.24
2022-12-31T18:46:14.961Z,8.24
2022-12-31T18:48:42.677Z,8.26
2022-12-31T18:51:14.260Z,8.16
2022-12-31T18:53:42.079Z,8.02
2022-12-31T18:56:12.208Z,7.99
2022-12-31T18:58:41.739Z,7.84
2022-12-31T19:01:25.584Z,7.71
2022-12-31T19:03:53.350Z,7.63
2022-12-31T19:06:20.993Z,7.52
2022-12-31T19:08:48.788Z,7.40
2022-12-31T19:11:17.008Z,7.34
2022-12-31T19:13:46.465Z,7.37
2022-12-31T19:16:14.618Z,7.23
2022-12-31T19:18:42.789Z,7.18
2022-12-31T19:21:15.946Z,7.21
2022-12-31T19:23:43.829Z,7.12
2022-12-31T19:26:16.313Z,7.07
2022-12-31T19:28:46.253Z,7.26
2022-12-31T19:31:14.131Z,7.38
2022-12-31T19:33:42.260Z,7.38
2022-12-31T19:36:15.365Z,7.34
2022-12-31T19:38:43.693Z,7.20
2022-12-31T19:41:16.226Z,7.28
2022-12-31T19:43:44.019Z,7.34
2022-12-31T19:46:15.446Z,7.41
2022-12-31T19:48:43.599Z,7.36
2022-12-31T19:51:13.164Z,7.33
2022-12-31T19:53:40.844Z,7.31
2022-12-31T19:56:12.368Z,7.29
2022-12-31T19:58:40.139Z,7.22
2022-12-31T20:01:08.052Z,7.10
2022-12-31T20:03:37.237Z,7.11
2022-12-31T20:06:07.124Z,7.06
2022-12-31T20:08:35.452Z,6.95
2022-12-31T20:11:08.684Z,6.93
2022-12-31T20:13:36.547Z,6.87
2022-12-31T20:16:04.728Z,6.85
2022-12-31T20:18:32.383Z,6.81
2022-12-31T20:21:01.462Z,6.66
2022-12-31T20:23:29.152Z,6.56
2022-12-31T20:25:58.127Z,6.60
2022-12-31T20:28:25.799Z,6.48
2022-12-31T20:30:53.611Z,6.44
2022-12-31T20:33:21.341Z,6.45
2022-12-31T20:35:49.222Z,6.42
2022-12-31T20:38:18.324Z,6.40
2022-12-31T20:40:47.056Z,6.36
2022-12-31T20:43:15.038Z,6.44
2022-12-31T20:45:42.903Z,6.34
2022-12-31T20:48:10.589Z,6.40
2022-12-31T20:50:38.282Z,6.52
2022-12-31T20:53:05.993Z,6.40
2022-12-31T20:55:38.502Z,6.38
2022-12-31T20:58:06.376Z,6.32
2022-12-31T21:00:34.046Z,6.23
2022-12-31T21:03:14.412Z,6.23
2022-12-31T21:05:49.886Z,6.27
2022-12-31T21:08:17.669Z,6.39
2022-12-31T21:10:48.516Z,6.44
2022-12-31T21:13:15.366Z,6.41
2022-12-31T21:15:43.534Z,6.53
2022-12-31T21:18:11.372Z,6.59
2022-12-31T21:20:39.018Z,6.64
2022-12-31T21:23:06.725Z,6.70
2022-12-31T21:25:34.390Z,6.65
2022-12-31T21:28:03.485Z,6.82
2022-12-31T21:30:31.247Z,6.75
2022-12-31T21:32:58.934Z,6.65
2022-12-31T21:35:46.971Z,6.60
2022-12-31T21:38:14.283Z,6.65
2022-12-31T21:40:41.987Z,6.70
2022-12-31T21:43:11.071Z,6.62
2022-12-31T21:45:39.306Z,6.61
2022-12-31T21:48:24.978Z,6.67
2022-12-31T21:50:54.265Z,6.67
2022-12-31T21:53:27.124Z,6.71
2022-12-31T21:56:09.852Z,6.66
2022-12-31T21:58:39.826Z,6.69
2022-12-31T22:01:26.199Z,6.64
2022-12-31T22:03:53.954Z,6.68
2022-12-31T22:06:23.562Z,6.69
2022-12-31T22:08:52.693Z,6.72
2022-12-31T22:11:22.462Z,6.70
2022-12-31T22:13:52.261Z,6.81
2022-12-31T22:16:20.586Z,6.85
2022-12-31T22:18:48.847Z,6.94
2022-12-31T22:21:19.927Z,6.98
2022-12-31T22:23:49.116Z,6.96
2022-12-31T22:26:18.189Z,6.94
2022-12-31T22:28:47.076Z,6.95
2022-12-31T22:31:18.430Z,6.89
2022-12-31T22:33:46.723Z,6.88
2022-12-31T22:36:15.988Z,6.91
2022-12-31T22:38:44.054Z,6.85
2022-12-31T22:41:13.455Z,6.83
2022-12-31T22:43:42.534Z,6.70
2022-12-31T22:46:11.534Z,6.65
2022-12-31T22:48:41.056Z,6.59
2022-12-31T22:51:09.939Z,6.51
2022-12-31T22:53:38.607Z,6.55
2022-12-31T22:56:07.024Z,6.54
2022-12-31T22:58:35.338Z,6.54
2022-12-31T23:01:05.860Z,6.50
2022-12-31T23:03:33.739Z,6.52
2022-12-31T23:06:02.866Z,6.49
2022-12-31T23:08:30.517Z,6.41
2022-12-31T23:11:01.403Z,6.32
2022-12-31T23:13:50.964Z,6.31
2022-12-31T23:16:37.152Z,6.31
2022-12-31T23:19:22.683Z,6.29
2022-12-31T23:22:09.751Z,6.28
2022-12-31T23:24:37.773Z,6.30
2022-12-31T23:27:05.891Z,6.31
2022-12-31T23:29:33.797Z,6.27
2022-12-31T23:32:01.520Z,6.30
2022-12-31T23:34:29.231Z,6.21
2022-12-31T23:36:58.357Z,6.18
2022-12-31T23:39:26.273Z,6.12
2022-12-31T23:41:54.001Z,6.09
2022-12-31T23:44:21.707Z,6.08
2022-12-31T23:46:49.519Z,6.02
2022-12-31T23:49:17.185Z,6.04
2022-12-31T23:51:45.316Z,6.04
2022-12-31T23:54:14.857Z,6.02
2022-12-31T23:56:42.804Z,6.03
2022-12-31T23:59:12.065Z,6.04
